Chipping Ongar, United Kingdom
Current Conditions -  °F | °C
As of 9:20 AM on Thursday 27 Nov 2014 (Local Time) from EGSS Reporting Station
Light Rain Light Rain  
Wind Chill: 50°   Ceiling: 200
Heat Index: 50°   Visibility: 1.2mi
Dew Point: 50°   Wind: 8mph
Humidity: 100%   Direction: 200°SSW
Pressure: 29.62"   Gusts: NA
Location:  51.7°N, 0.25°E
Report Text: EGSS 270920Z 20007KT 2000 -RADZ BR OVC002 10/10 Q1003
Loading
Personal Weather Stations






























Interactive Weather Map New forecast layout! Learn more

10-Day Weather Forecast

Advertisements
Track Severe Weather on mobile